createdAt,value
2023-02-24T00:00:09.297Z,6.97
2023-02-24T00:01:09.330Z,6.95
2023-02-24T00:02:09.303Z,6.92
2023-02-24T00:03:09.326Z,6.87
2023-02-24T00:04:09.256Z,6.79
2023-02-24T00:05:09.242Z,6.74
2023-02-24T00:06:09.242Z,6.70
2023-02-24T00:07:09.276Z,6.64
2023-02-24T00:08:09.200Z,6.64
2023-02-24T00:09:09.195Z,6.64
2023-02-24T00:10:09.161Z,6.62
2023-02-24T00:11:09.194Z,6.63
2023-02-24T00:12:09.186Z,6.60
2023-02-24T00:13:09.179Z,6.62
2023-02-24T00:14:09.118Z,6.64
2023-02-24T00:15:09.143Z,6.70
2023-02-24T00:16:09.127Z,6.74
2023-02-24T00:17:09.228Z,6.78
2023-02-24T00:18:09.085Z,6.77
2023-02-24T00:19:09.075Z,6.79
2023-02-24T00:20:09.091Z,6.85
2023-02-24T00:21:09.050Z,6.87
2023-02-24T00:22:09.011Z,6.84
2023-02-24T00:23:09.034Z,6.79
2023-02-24T00:24:08.984Z,6.74
2023-02-24T00:25:09.032Z,6.66
2023-02-24T00:26:08.961Z,6.54
2023-02-24T00:27:08.989Z,6.45
2023-02-24T00:28:08.951Z,6.38
2023-02-24T00:29:08.941Z,6.30
2023-02-24T00:30:08.908Z,6.26
2023-02-24T00:31:09.124Z,6.24
2023-02-24T00:32:09.000Z,6.24
2023-02-24T00:33:09.006Z,6.22
2023-02-24T00:34:08.872Z,6.22
2023-02-24T00:35:08.895Z,6.22
2023-02-24T00:36:08.842Z,6.22
2023-02-24T00:37:08.885Z,6.19
2023-02-24T00:38:08.819Z,6.17
2023-02-24T00:39:08.811Z,6.12
2023-02-24T00:40:08.813Z,6.05
2023-02-24T00:41:08.780Z,6.04
2023-02-24T00:42:08.768Z,6.05
2023-02-24T00:43:08.766Z,6.05
2023-02-24T00:44:08.745Z,6.01
2023-02-24T00:45:08.772Z,5.99
2023-02-24T00:46:08.817Z,6.05
2023-02-24T00:47:08.721Z,6.12
2023-02-24T00:48:08.713Z,6.12
2023-02-24T00:49:08.709Z,6.09
2023-02-24T00:50:08.704Z,6.08
2023-02-24T00:51:08.667Z,5.99
2023-02-24T00:52:08.636Z,5.99
2023-02-24T00:53:08.668Z,6.05
2023-02-24T00:54:08.613Z,6.12
2023-02-24T00:55:08.625Z,6.14
2023-02-24T00:56:08.626Z,6.19
2023-02-24T00:57:08.595Z,6.22
2023-02-24T00:58:08.561Z,6.27
2023-02-24T00:59:08.588Z,6.30
2023-02-24T01:00:08.542Z,6.35
2023-02-24T01:01:08.554Z,6.35
2023-02-24T01:02:08.536Z,6.31
2023-02-24T01:03:08.530Z,6.26
2023-02-24T01:04:08.517Z,6.24
2023-02-24T01:05:08.489Z,6.20
2023-02-24T01:06:08.459Z,6.12
2023-02-24T01:07:08.498Z,6.12
2023-02-24T01:08:08.437Z,6.09
2023-02-24T01:09:08.477Z,6.05
2023-02-24T01:10:08.447Z,6.01
2023-02-24T01:11:08.416Z,5.99
2023-02-24T01:12:08.511Z,5.91
2023-02-24T01:13:08.386Z,5.90
2023-02-24T01:14:08.355Z,5.87
2023-02-24T01:15:08.384Z,5.86
2023-02-24T01:16:08.366Z,5.89
2023-02-24T01:17:08.343Z,5.89
2023-02-24T01:18:08.301Z,5.84
2023-02-24T01:19:08.314Z,5.80
2023-02-24T01:20:08.282Z,5.76
2023-02-24T01:21:08.309Z,5.72
2023-02-24T01:22:08.248Z,5.66
2023-02-24T01:23:08.259Z,5.61
2023-02-24T01:24:08.250Z,5.59
2023-02-24T01:25:08.227Z,5.61
2023-02-24T01:26:08.225Z,5.65
2023-02-24T01:27:08.216Z,5.62
2023-02-24T01:28:08.176Z,5.65
2023-02-24T01:29:08.232Z,5.61
2023-02-24T01:30:08.142Z,5.61
2023-02-24T01:31:08.278Z,5.59
2023-02-24T01:32:08.309Z,5.68
2023-02-24T01:33:08.437Z,5.71
2023-02-24T01:34:08.094Z,5.69
2023-02-24T01:35:08.135Z,5.68
2023-02-24T01:36:08.090Z,5.56
2023-02-24T01:37:08.091Z,5.59
2023-02-24T01:38:08.041Z,5.61
2023-02-24T01:39:08.060Z,5.65
2023-02-24T01:40:08.022Z,5.65
2023-02-24T01:41:08.032Z,5.66
2023-02-24T01:42:08.023Z,5.68
2023-02-24T01:43:07.991Z,5.71
2023-02-24T01:44:07.968Z,5.73
2023-02-24T01:45:08.002Z,5.73
2023-02-24T01:46:07.975Z,5.76
2023-02-24T01:47:07.967Z,5.76
2023-02-24T01:48:07.945Z,5.82
2023-02-24T01:49:07.938Z,5.87
2023-02-24T01:50:07.890Z,5.94
2023-02-24T01:51:07.902Z,5.98
2023-02-24T01:52:07.868Z,5.99
2023-02-24T01:53:07.878Z,5.94
2023-02-24T01:54:07.880Z,5.93
2023-02-24T01:55:07.899Z,5.84
2023-02-24T01:56:07.823Z,5.82
2023-02-24T01:57:14.867Z,5.84
2023-02-24T01:58:07.795Z,5.84
2023-02-24T01:59:07.806Z,5.80
2023-02-24T02:00:07.775Z,5.79
2023-02-24T02:01:07.794Z,5.82
2023-02-24T02:02:07.837Z,5.86
2023-02-24T02:03:07.747Z,5.91
2023-02-24T02:04:07.733Z,5.99
2023-02-24T02:05:07.713Z,6.05
2023-02-24T02:06:07.763Z,6.08
2023-02-24T02:07:07.712Z,6.11
2023-02-24T02:08:07.709Z,6.12
2023-02-24T02:09:07.683Z,6.04
2023-02-24T02:10:07.637Z,6.01
2023-02-24T02:11:07.662Z,6.01
2023-02-24T02:12:07.647Z,5.97
2023-02-24T02:13:07.610Z,5.90
2023-02-24T02:14:07.618Z,5.87
2023-02-24T02:15:07.609Z,5.86
2023-02-24T02:16:07.645Z,5.86
2023-02-24T02:17:07.564Z,5.87
2023-02-24T02:18:07.537Z,5.89
2023-02-24T02:19:07.719Z,5.91
2023-02-24T02:20:07.522Z,5.98
2023-02-24T02:21:07.507Z,6.01
2023-02-24T02:22:07.483Z,6.05
2023-02-24T02:23:07.587Z,6.08
2023-02-24T02:24:07.512Z,6.12
2023-02-24T02:25:07.483Z,6.12
2023-02-24T02:26:07.453Z,6.17
2023-02-24T02:27:07.440Z,6.17
2023-02-24T02:28:07.414Z,6.22
2023-02-24T02:29:07.481Z,6.24
2023-02-24T02:30:07.422Z,6.17
2023-02-24T02:31:07.580Z,6.12
2023-02-24T02:32:07.467Z,6.07
2023-02-24T02:33:07.367Z,6.05
2023-02-24T02:34:07.335Z,6.04
2023-02-24T02:35:07.365Z,6.01
2023-02-24T02:36:07.312Z,6.02
2023-02-24T02:37:07.346Z,6.01
2023-02-24T02:38:07.307Z,6.01
2023-02-24T02:39:07.328Z,6.05
2023-02-24T02:40:07.247Z,6.08
2023-02-24T02:41:07.311Z,6.09
2023-02-24T02:42:07.224Z,6.09
2023-02-24T02:43:07.231Z,6.12
2023-02-24T02:44:07.213Z,6.14
2023-02-24T02:45:07.200Z,6.16
2023-02-24T02:46:07.229Z,6.20
2023-02-24T02:47:07.191Z,6.20
2023-02-24T02:48:07.170Z,6.20
2023-02-24T02:49:07.152Z,6.14
2023-02-24T02:50:07.136Z,6.09
2023-02-24T02:51:07.156Z,6.07
2023-02-24T02:52:07.137Z,6.05
2023-02-24T02:53:07.111Z,6.05
2023-02-24T02:54:07.166Z,6.07
2023-02-24T02:55:07.091Z,6.09
2023-02-24T02:56:07.097Z,6.09
2023-02-24T02:57:07.039Z,6.08
2023-02-24T02:58:07.028Z,6.07
2023-02-24T02:59:07.040Z,6.05
2023-02-24T03:00:07.054Z,6.02
2023-02-24T03:01:07.043Z,5.99
2023-02-24T03:02:07.024Z,5.97
2023-02-24T03:03:06.973Z,5.90
2023-02-24T03:04:06.985Z,5.87
2023-02-24T03:05:06.965Z,5.87
2023-02-24T03:06:06.967Z,5.86
2023-02-24T03:07:06.966Z,5.87
2023-02-24T03:08:06.914Z,5.91
2023-02-24T03:09:06.864Z,5.91
2023-02-24T03:10:06.932Z,5.93
2023-02-24T03:11:06.848Z,5.94
2023-02-24T03:12:06.847Z,5.99
2023-02-24T03:13:06.819Z,5.98
2023-02-24T03:14:06.820Z,6.02
2023-02-24T03:15:06.840Z,6.04
2023-02-24T03:16:06.818Z,6.04
2023-02-24T03:17:06.824Z,6.05
2023-02-24T03:18:06.790Z,6.05
2023-02-24T03:19:06.766Z,6.02
2023-02-24T03:20:06.768Z,6.01
2023-02-24T03:21:06.727Z,5.99
2023-02-24T03:22:06.831Z,6.01
2023-02-24T03:23:06.696Z,6.01
2023-02-24T03:24:06.710Z,5.93
2023-02-24T03:25:06.683Z,5.86
2023-02-24T03:26:06.664Z,5.76
2023-02-24T03:27:06.643Z,5.72
2023-02-24T03:28:06.694Z,5.68
2023-02-24T03:29:06.631Z,5.68
2023-02-24T03:30:06.642Z,5.65
2023-02-24T03:31:06.697Z,5.64
2023-02-24T03:32:06.669Z,5.57
2023-02-24T03:33:06.583Z,5.59
2023-02-24T03:34:06.625Z,5.59
2023-02-24T03:35:06.559Z,5.62
2023-02-24T03:36:06.552Z,5.64
2023-02-24T03:37:06.511Z,5.64
2023-02-24T03:38:06.618Z,5.66
2023-02-24T03:39:06.500Z,5.66
2023-02-24T03:40:06.530Z,5.65
2023-02-24T03:41:06.464Z,5.62
2023-02-24T03:42:06.463Z,5.62
2023-02-24T03:43:06.437Z,5.59
2023-02-24T03:44:06.456Z,5.56
2023-02-24T03:45:06.485Z,5.51
2023-02-24T03:46:06.434Z,5.43
2023-02-24T03:47:06.391Z,5.39
2023-02-24T03:48:06.429Z,5.39
2023-02-24T03:49:06.357Z,5.43
2023-02-24T03:50:06.362Z,5.46
2023-02-24T03:51:06.334Z,5.41
2023-02-24T03:52:06.384Z,5.38
2023-02-24T03:53:06.310Z,5.36
2023-02-24T03:54:06.322Z,5.29
2023-02-24T03:55:06.277Z,5.25
2023-02-24T03:56:06.292Z,5.23
2023-02-24T03:57:06.254Z,5.28
2023-02-24T03:58:06.302Z,5.32
2023-02-24T03:59:06.237Z,5.33
2023-02-24T04:00:06.246Z,5.39
2023-02-24T04:01:06.246Z,5.32
2023-02-24T04:02:06.254Z,5.29
2023-02-24T04:03:06.189Z,5.20
2023-02-24T04:04:06.193Z,5.14
2023-02-24T04:05:06.242Z,5.11
2023-02-24T04:06:06.191Z,5.11
2023-02-24T04:07:06.145Z,5.10
2023-02-24T04:08:06.149Z,5.10
2023-02-24T04:09:06.101Z,5.10
2023-02-24T04:10:06.101Z,5.10
2023-02-24T04:11:06.110Z,5.12
2023-02-24T04:12:06.090Z,5.15
2023-02-24T04:13:06.047Z,5.21
2023-02-24T04:14:06.055Z,5.25
2023-02-24T04:15:06.035Z,5.30
2023-02-24T04:16:06.150Z,5.30
2023-02-24T04:17:06.000Z,5.23
2023-02-24T04:18:05.998Z,5.23
2023-02-24T04:19:05.966Z,5.25
2023-02-24T04:20:05.985Z,5.28
2023-02-24T04:21:05.950Z,5.30
2023-02-24T04:22:05.974Z,5.33
2023-02-24T04:23:05.913Z,5.38
2023-02-24T04:24:05.918Z,5.39
2023-02-24T04:25:05.887Z,5.43
2023-02-24T04:26:05.912Z,5.43
2023-02-24T04:27:05.869Z,5.44
2023-02-24T04:28:05.896Z,5.47
2023-02-24T04:29:05.874Z,5.47
2023-02-24T04:30:05.862Z,5.51
2023-02-24T04:31:05.983Z,5.53
2023-02-24T04:32:06.012Z,5.50
2023-02-24T04:33:05.816Z,5.51
2023-02-24T04:34:05.808Z,5.48
2023-02-24T04:35:05.783Z,5.48
2023-02-24T04:36:05.766Z,5.46
2023-02-24T04:37:05.737Z,5.44
2023-02-24T04:38:05.785Z,5.41
2023-02-24T04:39:05.715Z,5.38
2023-02-24T04:40:05.732Z,5.36
2023-02-24T04:41:05.684Z,5.33
2023-02-24T04:42:05.704Z,5.25
2023-02-24T04:43:05.692Z,5.10
2023-02-24T04:44:05.669Z,4.99
2023-02-24T04:45:05.639Z,4.92
2023-02-24T04:46:05.670Z,4.84
2023-02-24T04:47:05.610Z,4.84
2023-02-24T04:48:05.648Z,4.87
2023-02-24T04:49:05.750Z,4.77
2023-02-24T04:50:05.601Z,4.73
2023-02-24T04:51:05.557Z,4.77
2023-02-24T04:52:05.609Z,4.82
2023-02-24T04:53:05.547Z,4.89
2023-02-24T04:54:05.549Z,4.99
2023-02-24T04:55:05.505Z,5.05
2023-02-24T04:56:05.527Z,5.12
2023-02-24T04:57:05.479Z,5.20
2023-02-24T04:58:05.548Z,5.25
2023-02-24T04:59:05.456Z,5.29
2023-02-24T05:00:05.473Z,5.30
2023-02-24T05:01:05.432Z,5.28
2023-02-24T05:02:05.436Z,5.28
2023-02-24T05:03:05.413Z,5.30
2023-02-24T05:04:05.607Z,5.33
2023-02-24T05:05:05.377Z,5.38
2023-02-24T05:06:05.401Z,5.44
2023-02-24T05:07:05.399Z,5.48
2023-02-24T05:08:05.377Z,5.54
2023-02-24T05:09:05.331Z,5.56
2023-02-24T05:10:05.359Z,5.56
2023-02-24T05:11:05.311Z,5.50
2023-02-24T05:12:05.376Z,5.46
2023-02-24T05:13:05.293Z,5.46
2023-02-24T05:14:05.281Z,5.47
2023-02-24T05:15:05.262Z,5.48
2023-02-24T05:16:05.298Z,5.53
2023-02-24T05:17:05.231Z,5.50
2023-02-24T05:18:05.270Z,5.53
2023-02-24T05:19:05.221Z,5.54
2023-02-24T05:20:05.226Z,5.51
2023-02-24T05:21:05.209Z,5.43
2023-02-24T05:22:05.198Z,5.44
2023-02-24T05:23:05.149Z,5.39
2023-02-24T05:24:05.157Z,5.39
2023-02-24T05:25:05.185Z,5.41
2023-02-24T05:26:05.173Z,5.44
2023-02-24T05:27:05.107Z,5.44
2023-02-24T05:28:05.134Z,5.43
2023-02-24T05:29:05.138Z,5.43
2023-02-24T05:30:05.099Z,5.44
2023-02-24T05:31:05.114Z,5.44
2023-02-24T05:32:05.223Z,5.43
2023-02-24T05:33:05.041Z,5.43
2023-02-24T05:34:05.031Z,5.43
2023-02-24T05:35:05.040Z,5.43
2023-02-24T05:36:05.846Z,5.36
2023-02-24T05:37:04.980Z,5.32
2023-02-24T05:38:04.988Z,5.28
2023-02-24T05:39:04.960Z,5.28
2023-02-24T05:40:04.965Z,5.28
2023-02-24T05:41:04.953Z,5.29
2023-02-24T05:42:04.946Z,5.29
2023-02-24T05:43:04.911Z,5.30
2023-02-24T05:44:04.943Z,5.32
2023-02-24T05:45:04.873Z,5.33
2023-02-24T05:46:04.912Z,5.35
2023-02-24T05:47:04.939Z,5.38
2023-02-24T05:48:04.855Z,5.38
2023-02-24T05:49:04.786Z,5.30
2023-02-24T05:50:04.849Z,5.30
2023-02-24T05:51:05.325Z,5.25
2023-02-24T05:52:04.776Z,5.21
2023-02-24T05:53:04.760Z,5.25
2023-02-24T05:54:04.838Z,5.28
2023-02-24T05:55:04.706Z,5.29
2023-02-24T05:56:04.703Z,5.33
2023-02-24T05:57:04.675Z,5.35
2023-02-24T05:58:04.744Z,5.30
2023-02-24T05:59:04.741Z,5.26
2023-02-24T06:00:04.663Z,5.14
2023-02-24T06:01:04.621Z,4.84
2023-02-24T06:02:04.658Z,4.75
2023-02-24T06:03:04.651Z,4.58
2023-02-24T06:04:04.733Z,4.52
2023-02-24T06:05:04.569Z,4.55
2023-02-24T06:06:04.591Z,4.45
2023-02-24T06:07:04.548Z,4.42
2023-02-24T06:08:04.550Z,4.44
2023-02-24T06:09:04.525Z,4.52
2023-02-24T06:10:04.547Z,4.49
2023-02-24T06:11:04.537Z,4.42
2023-02-24T06:12:04.579Z,4.37
2023-02-24T06:13:04.475Z,4.30
2023-02-24T06:14:04.557Z,4.31
2023-02-24T06:15:04.484Z,4.35
2023-02-24T06:16:04.545Z,4.38
2023-02-24T06:17:04.433Z,4.41
2023-02-24T06:18:04.458Z,4.52
2023-02-24T06:19:04.412Z,4.60
2023-02-24T06:20:04.409Z,4.67
2023-02-24T06:21:04.400Z,4.73
2023-02-24T06:22:04.399Z,4.77
2023-02-24T06:23:04.342Z,4.84
2023-02-24T06:24:04.437Z,4.84
2023-02-24T06:25:04.321Z,4.87
2023-02-24T06:26:04.340Z,4.93
2023-02-24T06:27:04.337Z,4.99
2023-02-24T06:28:04.311Z,5.02
2023-02-24T06:29:04.274Z,5.08
2023-02-24T06:30:04.299Z,5.02
2023-02-24T06:31:04.324Z,5.04
2023-02-24T06:32:04.335Z,5.07
2023-02-24T06:33:04.218Z,5.10
2023-02-24T06:34:04.228Z,5.11
2023-02-24T06:35:04.218Z,5.12
2023-02-24T06:36:04.199Z,5.15
2023-02-24T06:37:04.174Z,5.20
2023-02-24T06:38:04.186Z,5.26
2023-02-24T06:39:04.171Z,5.29
2023-02-24T06:40:04.187Z,5.36
2023-02-24T06:41:04.163Z,5.43
2023-02-24T06:42:04.131Z,5.50
2023-02-24T06:43:04.122Z,5.51
2023-02-24T06:44:04.222Z,5.51
2023-02-24T06:45:05.982Z,5.54
2023-02-24T06:46:04.146Z,5.59
2023-02-24T06:47:04.082Z,5.62
2023-02-24T06:48:04.044Z,5.57
2023-02-24T06:49:04.039Z,5.56
2023-02-24T06:50:04.032Z,5.54
2023-02-24T06:51:04.011Z,5.50
2023-02-24T06:52:04.028Z,5.50
2023-02-24T06:53:03.973Z,5.50
2023-02-24T06:54:03.986Z,5.48
2023-02-24T06:55:03.949Z,5.46
2023-02-24T06:56:03.981Z,5.39
2023-02-24T06:57:03.952Z,5.35
2023-02-24T06:58:03.950Z,5.26
2023-02-24T06:59:03.900Z,5.25
2023-02-24T07:00:03.913Z,5.21
2023-02-24T07:01:03.926Z,5.23
2023-02-24T07:02:03.898Z,5.26
2023-02-24T07:03:03.915Z,5.29
2023-02-24T07:04:03.881Z,5.29
2023-02-24T07:05:03.833Z,5.28
2023-02-24T07:06:03.814Z,5.30
2023-02-24T07:07:03.832Z,5.32
2023-02-24T07:08:03.782Z,5.32
2023-02-24T07:09:03.809Z,5.35
2023-02-24T07:10:03.750Z,5.36
2023-02-24T07:11:03.771Z,5.35
2023-02-24T07:12:03.731Z,5.35
2023-02-24T07:13:03.783Z,5.35
2023-02-24T07:14:03.708Z,5.36
2023-02-24T07:15:03.720Z,5.36
2023-02-24T07:16:03.682Z,5.35
2023-02-24T07:17:03.742Z,5.33
2023-02-24T07:18:03.670Z,5.35
2023-02-24T07:19:03.709Z,5.32
2023-02-24T07:20:03.646Z,5.28
2023-02-24T07:21:03.652Z,5.25
2023-02-24T07:22:03.861Z,5.25
2023-02-24T07:23:03.633Z,5.25
2023-02-24T07:24:03.573Z,5.25
2023-02-24T07:25:03.630Z,5.29
2023-02-24T07:26:03.556Z,5.33
2023-02-24T07:27:03.573Z,5.39
2023-02-24T07:28:03.610Z,5.43
2023-02-24T07:29:03.531Z,5.48
2023-02-24T07:30:03.500Z,5.53
2023-02-24T07:31:03.659Z,5.57
2023-02-24T07:32:03.952Z,5.62
2023-02-24T07:33:03.529Z,5.65
2023-02-24T07:34:03.496Z,5.68
2023-02-24T07:35:03.471Z,5.71
2023-02-24T07:36:03.426Z,5.73
2023-02-24T07:37:03.434Z,5.76
2023-02-24T07:38:03.397Z,5.80
2023-02-24T07:39:03.443Z,5.86
2023-02-24T07:40:03.399Z,5.89
2023-02-24T07:41:03.407Z,5.90
2023-02-24T07:42:03.371Z,5.93
2023-02-24T07:43:03.352Z,5.98
2023-02-24T07:44:03.484Z,6.01
2023-02-24T07:45:03.405Z,6.02
2023-02-24T07:46:03.342Z,6.05
2023-02-24T07:47:03.336Z,6.09
2023-02-24T07:48:03.277Z,6.14
2023-02-24T07:49:03.287Z,6.16
2023-02-24T07:50:03.252Z,6.16
2023-02-24T07:51:03.277Z,6.17
2023-02-24T07:52:03.243Z,6.14
2023-02-24T07:53:03.224Z,6.12
2023-02-24T07:54:03.194Z,6.11
2023-02-24T07:55:03.219Z,6.12
2023-02-24T07:56:03.192Z,6.14
2023-02-24T07:57:03.184Z,6.09
2023-02-24T07:58:10.207Z,6.08
2023-02-24T07:59:03.197Z,6.07
2023-02-24T08:00:03.155Z,6.02
2023-02-24T08:01:03.145Z,6.02
2023-02-24T08:02:03.113Z,6.04
2023-02-24T08:03:03.143Z,6.05
2023-02-24T08:04:03.088Z,6.07
2023-02-24T08:05:03.094Z,6.05
2023-02-24T08:06:03.074Z,6.11
2023-02-24T08:07:03.537Z,6.17
2023-02-24T08:08:03.041Z,6.26
2023-02-24T08:09:03.024Z,6.33
2023-02-24T08:10:03.018Z,6.36
2023-02-24T08:11:03.009Z,6.38
2023-02-24T08:12:02.974Z,6.41
2023-02-24T08:13:03.117Z,6.44
2023-02-24T08:14:02.940Z,6.46
2023-02-24T08:15:02.952Z,6.51
2023-02-24T08:16:02.989Z,6.52
2023-02-24T08:17:02.961Z,6.56
2023-02-24T08:18:02.932Z,6.57
2023-02-24T08:19:02.888Z,6.59
2023-02-24T08:20:02.857Z,6.62
2023-02-24T08:21:02.866Z,6.63
2023-02-24T08:22:02.855Z,6.63
2023-02-24T08:23:02.871Z,6.66
2023-02-24T08:24:02.809Z,6.67
2023-02-24T08:25:02.845Z,6.69
2023-02-24T08:26:02.835Z,6.67
2023-02-24T08:27:02.851Z,6.66
2023-02-24T08:28:07.856Z,6.66
2023-02-24T08:29:03.779Z,6.63
2023-02-24T08:30:02.740Z,6.66
2023-02-24T08:31:03.007Z,6.70
2023-02-24T08:32:02.781Z,6.77
2023-02-24T08:33:02.762Z,6.82
2023-02-24T08:34:02.672Z,6.85
2023-02-24T08:35:02.710Z,6.84
2023-02-24T08:36:02.960Z,6.78
2023-02-24T08:37:02.669Z,6.82
2023-02-24T08:38:02.619Z,6.88
2023-02-24T08:39:02.659Z,6.89
2023-02-24T08:40:02.598Z,6.95
2023-02-24T08:41:02.609Z,6.96
2023-02-24T08:42:02.590Z,6.92
2023-02-24T08:43:02.617Z,6.92
2023-02-24T08:44:03.347Z,6.93
2023-02-24T08:45:02.567Z,6.95
2023-02-24T08:46:02.537Z,6.95
2023-02-24T08:47:02.601Z,7.00
2023-02-24T08:48:02.507Z,6.99
2023-02-24T08:49:02.564Z,7.05
2023-02-24T08:50:02.476Z,7.11
2023-02-24T08:51:02.494Z,7.15
2023-02-24T08:52:02.548Z,7.14
2023-02-24T08:53:02.466Z,7.15
2023-02-24T08:54:02.457Z,7.13
2023-02-24T08:55:02.490Z,7.15
2023-02-24T08:56:02.407Z,7.10
2023-02-24T08:57:02.427Z,7.03
2023-02-24T08:58:02.388Z,7.02
2023-02-24T08:59:02.404Z,7.00
2023-02-24T09:00:02.396Z,6.97
2023-02-24T09:01:02.450Z,7.00
2023-02-24T09:02:04.984Z,7.06
2023-02-24T09:03:02.434Z,7.11
2023-02-24T09:04:02.312Z,7.23
2023-02-24T09:05:02.413Z,7.31
2023-02-24T09:06:02.336Z,7.36
2023-02-24T09:07:11.217Z,7.43
2023-02-24T09:08:03.261Z,7.53
2023-02-24T09:09:02.290Z,7.63
2023-02-24T09:10:02.250Z,7.72
2023-02-24T09:11:02.250Z,7.77
2023-02-24T09:12:02.499Z,7.83
2023-02-24T09:13:02.216Z,7.85
2023-02-24T09:14:02.178Z,7.88
2023-02-24T09:15:02.233Z,7.91
2023-02-24T09:16:02.217Z,7.91
2023-02-24T09:17:02.216Z,7.91
2023-02-24T09:18:02.141Z,7.91
2023-02-24T09:19:02.128Z,7.93
2023-02-24T09:20:02.215Z,7.97
2023-02-24T09:21:02.113Z,7.98
2023-02-24T09:22:04.255Z,8.01
2023-02-24T09:23:03.117Z,8.00
2023-02-24T09:24:02.064Z,7.97
2023-02-24T09:25:02.102Z,7.95
2023-02-24T09:26:02.025Z,7.98
2023-02-24T09:27:02.068Z,7.97
2023-02-24T09:28:02.001Z,7.98
2023-02-24T09:29:02.068Z,8.00
2023-02-24T09:30:01.980Z,7.98
2023-02-24T09:31:02.001Z,8.00
2023-02-24T09:32:02.149Z,7.95
2023-02-24T09:33:02.135Z,7.98
2023-02-24T09:34:01.936Z,8.01
2023-02-24T09:35:01.980Z,8.12
2023-02-24T09:36:01.936Z,8.15
2023-02-24T09:37:02.841Z,8.27
2023-02-24T09:38:01.863Z,8.34
2023-02-24T09:39:02.094Z,8.41
2023-02-24T09:40:01.856Z,8.46
2023-02-24T09:41:13.715Z,8.53
2023-02-24T09:42:02.865Z,8.60
2023-02-24T09:43:01.872Z,8.63
2023-02-24T09:44:01.785Z,8.60
2023-02-24T09:45:01.829Z,8.56
2023-02-24T09:46:01.940Z,8.55
2023-02-24T09:47:01.805Z,8.52
2023-02-24T09:48:01.786Z,8.46
2023-02-24T09:49:01.770Z,8.46
2023-02-24T09:50:01.719Z,8.45
2023-02-24T09:51:04.324Z,8.45
2023-02-24T09:52:01.708Z,8.45
2023-02-24T09:53:10.773Z,8.48
2023-02-24T09:54:02.703Z,8.51
2023-02-24T09:55:01.712Z,8.51
2023-02-24T09:56:01.651Z,8.52
2023-02-24T09:57:01.681Z,8.51
2023-02-24T09:58:01.625Z,8.52
2023-02-24T09:59:01.659Z,8.53
2023-02-24T10:00:01.861Z,8.55
2023-02-24T10:01:01.622Z,8.58
2023-02-24T10:02:01.644Z,8.61
2023-02-24T10:03:01.587Z,8.64
2023-02-24T10:04:06.288Z,8.71
2023-02-24T10:05:02.600Z,8.73
2023-02-24T10:06:01.554Z,8.76
2023-02-24T10:07:01.601Z,8.79
2023-02-24T10:08:01.491Z,8.81
2023-02-24T10:09:01.490Z,8.81
2023-02-24T10:10:01.467Z,8.81
2023-02-24T10:11:01.471Z,8.79
2023-02-24T10:12:01.473Z,8.79
2023-02-24T10:13:01.460Z,8.76
2023-02-24T10:14:04.415Z,8.78
2023-02-24T10:15:01.428Z,8.76
2023-02-24T10:16:08.264Z,8.79
2023-02-24T10:17:02.458Z,8.82
2023-02-24T10:18:01.372Z,8.87
2023-02-24T10:19:01.616Z,8.87
2023-02-24T10:20:01.374Z,8.91
2023-02-24T10:21:01.434Z,8.95
2023-02-24T10:22:01.355Z,8.97
2023-02-24T10:23:01.343Z,9.02
2023-02-24T10:24:01.306Z,8.99
2023-02-24T10:25:01.343Z,8.94
2023-02-24T10:26:06.699Z,8.85
2023-02-24T10:27:08.327Z,8.82
2023-02-24T10:28:02.252Z,8.79
2023-02-24T10:29:01.271Z,8.73
2023-02-24T10:30:01.268Z,8.76
2023-02-24T10:31:01.321Z,8.74
2023-02-24T10:32:01.409Z,8.78
2023-02-24T10:33:01.386Z,8.82
2023-02-24T10:34:01.191Z,8.79
2023-02-24T10:35:01.175Z,8.78
2023-02-24T10:36:01.136Z,8.81
2023-02-24T10:37:01.160Z,8.81
2023-02-24T10:38:01.108Z,8.82
2023-02-24T10:39:01.137Z,8.82
2023-02-24T10:40:02.035Z,8.88
2023-02-24T10:41:01.103Z,8.95
2023-02-24T10:42:01.112Z,8.94
2023-02-24T10:43:01.085Z,8.95
2023-02-24T10:44:01.117Z,9.02
2023-02-24T10:45:02.622Z,9.04
2023-02-24T10:46:01.032Z,9.11
2023-02-24T10:47:01.055Z,9.14
2023-02-24T10:48:00.984Z,9.18
2023-02-24T10:49:01.028Z,9.22
2023-02-24T10:50:00.967Z,9.22
2023-02-24T10:51:00.963Z,9.19
2023-02-24T10:52:00.947Z,9.21
2023-02-24T10:53:00.944Z,9.26
2023-02-24T10:54:00.923Z,9.32
2023-02-24T10:55:00.927Z,9.37
2023-02-24T10:56:00.899Z,9.39
2023-02-24T10:57:00.955Z,9.43
2023-02-24T10:58:00.857Z,9.44
2023-02-24T10:59:01.847Z,9.44
2023-02-24T11:00:00.854Z,9.41
2023-02-24T11:01:00.922Z,9.43
2023-02-24T11:02:00.828Z,9.46
2023-02-24T11:03:00.808Z,9.50
2023-02-24T11:04:00.780Z,9.51
2023-02-24T11:05:01.727Z,9.51
2023-02-24T11:06:00.772Z,9.50
2023-02-24T11:07:00.768Z,9.56
2023-02-24T11:08:00.745Z,9.62
2023-02-24T11:09:00.740Z,9.65
2023-02-24T11:10:00.691Z,9.68
2023-02-24T11:11:00.751Z,9.64
2023-02-24T11:12:00.682Z,9.61
2023-02-24T11:13:09.013Z,9.61
2023-02-24T11:14:01.637Z,9.61
2023-02-24T11:15:00.657Z,9.65
2023-02-24T11:16:00.782Z,9.69
2023-02-24T11:17:00.625Z,9.74
2023-02-24T11:18:00.686Z,9.80
2023-02-24T11:19:00.574Z,9.84
2023-02-24T11:20:00.593Z,9.89
2023-02-24T11:21:00.553Z,9.92
2023-02-24T11:22:00.630Z,9.94
2023-02-24T11:23:00.535Z,9.94
2023-02-24T11:24:00.560Z,9.87
2023-02-24T11:25:01.814Z,9.79
2023-02-24T11:26:00.511Z,9.65
2023-02-24T11:27:01.929Z,9.62
2023-02-24T11:28:00.499Z,9.61
2023-02-24T11:29:00.446Z,9.61
2023-02-24T11:30:00.500Z,9.66
2023-02-24T11:31:00.545Z,9.68
2023-02-24T11:32:00.545Z,9.69
2023-02-24T11:33:00.431Z,9.68
2023-02-24T11:34:00.430Z,9.69
2023-02-24T11:35:00.374Z,9.69
2023-02-24T11:36:00.396Z,9.72
2023-02-24T11:37:00.342Z,9.69
2023-02-24T11:38:00.376Z,9.73
2023-02-24T11:39:15.319Z,9.74
2023-02-24T11:40:01.356Z,9.74
2023-02-24T11:41:00.313Z,9.77
2023-02-24T11:42:00.332Z,9.77
2023-02-24T11:43:00.290Z,9.80
2023-02-24T11:44:00.307Z,9.83
2023-02-24T11:45:00.250Z,9.87
2023-02-24T11:46:00.260Z,9.91
2023-02-24T11:47:00.212Z,9.97
2023-02-24T11:48:00.252Z,10.02
2023-02-24T11:49:00.183Z,10.12
2023-02-24T11:50:00.221Z,10.17
2023-02-24T11:51:00.160Z,10.23
2023-02-24T11:52:00.200Z,10.28
2023-02-24T11:53:00.158Z,10.26
2023-02-24T11:54:00.179Z,10.28
2023-02-24T11:55:00.159Z,10.30
2023-02-24T11:56:00.133Z,10.31
2023-02-24T11:57:00.130Z,10.35
2023-02-24T11:58:00.121Z,10.38
2023-02-24T11:59:00.059Z,10.44
2023-02-24T12:00:00.112Z,10.44
2023-02-24T12:01:00.033Z,10.35
2023-02-24T12:02:00.088Z,10.35
2023-02-24T12:03:01.354Z,10.38
2023-02-24T12:04:00.016Z,10.42
2023-02-24T12:05:00.036Z,10.49
2023-02-24T12:06:00.069Z,10.54
2023-02-24T12:06:59.993Z,10.61
2023-02-24T12:08:00.063Z,10.68
2023-02-24T12:08:59.932Z,10.72
2023-02-24T12:10:14.032Z,10.81
2023-02-24T12:11:00.928Z,10.86
2023-02-24T12:11:59.932Z,10.93
2023-02-24T12:12:59.877Z,11.04
2023-02-24T12:13:59.880Z,11.07
2023-02-24T12:14:59.877Z,11.08
2023-02-24T12:16:00.215Z,11.14
2023-02-24T12:16:59.826Z,11.22
2023-02-24T12:17:59.830Z,11.29
2023-02-24T12:18:59.809Z,11.35
2023-02-24T12:19:59.808Z,11.40
2023-02-24T12:20:59.795Z,11.45
2023-02-24T12:21:59.828Z,11.47
2023-02-24T12:22:59.781Z,11.52
2023-02-24T12:23:59.793Z,11.59
2023-02-24T12:24:59.751Z,11.66
2023-02-24T12:25:59.759Z,11.69
2023-02-24T12:26:59.742Z,11.75
2023-02-24T12:27:59.713Z,11.80
2023-02-24T12:28:59.680Z,11.83
2023-02-24T12:29:59.692Z,11.87
2023-02-24T12:30:59.692Z,11.91
2023-02-24T12:31:59.865Z,11.99
2023-02-24T12:32:59.695Z,12.02
2023-02-24T12:33:59.659Z,12.10
2023-02-24T12:34:59.605Z,12.20
2023-02-24T12:35:59.619Z,12.24
2023-02-24T12:36:59.566Z,12.27
2023-02-24T12:37:59.611Z,12.24
2023-02-24T12:38:59.536Z,12.21
2023-02-24T12:39:59.561Z,12.22
2023-02-24T12:40:59.514Z,12.21
2023-02-24T12:41:59.515Z,12.24
2023-02-24T12:42:59.494Z,12.25
2023-02-24T12:43:59.541Z,12.28
2023-02-24T12:44:59.536Z,12.27
2023-02-24T12:45:59.533Z,12.25
2023-02-24T12:46:59.442Z,12.22
2023-02-24T12:47:59.446Z,12.21
2023-02-24T12:48:59.415Z,12.22
2023-02-24T12:49:59.439Z,12.25
2023-02-24T12:50:59.414Z,12.25
2023-02-24T12:51:59.396Z,12.20
2023-02-24T12:52:59.366Z,12.12
2023-02-24T12:53:59.384Z,12.04
2023-02-24T12:54:59.357Z,12.10
2023-02-24T12:55:59.350Z,12.20
2023-02-24T12:56:59.312Z,12.28
2023-02-24T12:57:59.365Z,12.35
2023-02-24T12:58:59.378Z,12.36
2023-02-24T12:59:59.293Z,12.42
2023-02-24T13:00:59.297Z,12.46
2023-02-24T13:01:59.303Z,12.50
2023-02-24T13:02:59.275Z,12.47
2023-02-24T13:03:59.251Z,12.45
2023-02-24T13:04:59.211Z,12.47
2023-02-24T13:05:59.242Z,12.36
2023-02-24T13:06:59.203Z,12.37
2023-02-24T13:07:59.209Z,12.40
2023-02-24T13:08:59.168Z,12.42
2023-02-24T13:09:59.178Z,12.42
2023-02-24T13:10:59.127Z,12.46
2023-02-24T13:11:59.168Z,12.46
2023-02-24T13:12:59.108Z,12.47
2023-02-24T13:13:59.108Z,12.43
2023-02-24T13:14:59.087Z,12.45